sensor_id;sensor_type;location;lat;lon;timestamp;P1;durP1;ratioP1;P2;durP2;ratioP2
29196;SDS011;62796;42.654;23.316;2023-10-13T00:02:10;20.70;;;10.05;;
29196;SDS011;62796;42.654;23.316;2023-10-13T00:04:36;19.17;;;9.60;;
29196;SDS011;62796;42.654;23.316;2023-10-13T00:07:01;21.92;;;9.55;;
29196;SDS011;62796;42.654;23.316;2023-10-13T00:09:29;15.98;;;8.73;;
29196;SDS011;62796;42.654;23.316;2023-10-13T00:11:57;16.65;;;8.75;;
29196;SDS011;62796;42.654;23.316;2023-10-13T00:14:24;17.30;;;9.00;;
29196;SDS011;62796;42.654;23.316;2023-10-13T00:19:28;18.20;;;9.48;;
29196;SDS011;62796;42.654;23.316;2023-10-13T00:22:04;16.42;;;9.45;;
29196;SDS011;62796;42.654;23.316;2023-10-13T00:24:37;20.88;;;9.32;;
29196;SDS011;62796;42.654;23.316;2023-10-13T00:27:16;14.15;;;9.60;;
29196;SDS011;62796;42.654;23.316;2023-10-13T00:30:07;15.52;;;9.70;;
29196;SDS011;62796;42.654;23.316;2023-10-13T00:32:58;17.15;;;10.82;;
29196;SDS011;62796;42.654;23.316;2023-10-13T00:35:24;18.92;;;10.13;;
29196;SDS011;62796;42.654;23.316;2023-10-13T00:38:00;23.25;;;9.98;;
29196;SDS011;62796;42.654;23.316;2023-10-13T00:40:37;15.63;;;9.57;;
29196;SDS011;62796;42.654;23.316;2023-10-13T00:43:03;20.45;;;9.52;;
29196;SDS011;62796;42.654;23.316;2023-10-13T00:45:43;15.25;;;9.05;;
29196;SDS011;62796;42.654;23.316;2023-10-13T00:48:39;20.00;;;9.90;;
29196;SDS011;62796;42.654;23.316;2023-10-13T00:51:19;15.93;;;9.27;;
29196;SDS011;62796;42.654;23.316;2023-10-13T00:53:58;20.60;;;9.30;;
29196;SDS011;62796;42.654;23.316;2023-10-13T00:56:27;12.90;;;8.90;;
29196;SDS011;62796;42.654;23.316;2023-10-13T00:58:53;12.35;;;8.52;;
29196;SDS011;62796;42.654;23.316;2023-10-13T01:01:22;22.20;;;9.45;;
29196;SDS011;62796;42.654;23.316;2023-10-13T01:03:53;17.85;;;9.25;;
29196;SDS011;62796;42.654;23.316;2023-10-13T01:06:27;15.18;;;9.20;;
29196;SDS011;62796;42.654;23.316;2023-10-13T01:09:00;26.48;;;8.82;;
29196;SDS011;62796;42.654;23.316;2023-10-13T01:11:50;15.48;;;9.60;;
29196;SDS011;62796;42.654;23.316;2023-10-13T01:14:20;12.80;;;9.02;;
29196;SDS011;62796;42.654;23.316;2023-10-13T01:16:47;17.23;;;9.30;;
29196;SDS011;62796;42.654;23.316;2023-10-13T01:19:17;17.75;;;10.00;;
29196;SDS011;62796;42.654;23.316;2023-10-13T01:21:48;15.75;;;9.35;;
29196;SDS011;62796;42.654;23.316;2023-10-13T01:24:14;16.13;;;9.80;;
29196;SDS011;62796;42.654;23.316;2023-10-13T01:26:40;15.70;;;8.98;;
29196;SDS011;62796;42.654;23.316;2023-10-13T01:29:07;15.48;;;9.48;;
29196;SDS011;62796;42.654;23.316;2023-10-13T01:31:39;15.90;;;9.52;;
29196;SDS011;62796;42.654;23.316;2023-10-13T01:34:11;14.25;;;8.73;;
29196;SDS011;62796;42.654;23.316;2023-10-13T01:36:47;14.02;;;9.13;;
29196;SDS011;62796;42.654;23.316;2023-10-13T01:39:19;15.23;;;9.32;;
29196;SDS011;62796;42.654;23.316;2023-10-13T01:41:52;16.40;;;9.57;;
29196;SDS011;62796;42.654;23.316;2023-10-13T01:44:21;15.75;;;9.48;;
29196;SDS011;62796;42.654;23.316;2023-10-13T01:46:53;14.73;;;8.95;;
29196;SDS011;62796;42.654;23.316;2023-10-13T01:49:18;18.60;;;9.68;;
29196;SDS011;62796;42.654;23.316;2023-10-13T01:51:46;14.57;;;9.55;;
29196;SDS011;62796;42.654;23.316;2023-10-13T01:54:12;21.70;;;10.40;;
29196;SDS011;62796;42.654;23.316;2023-10-13T01:56:38;15.43;;;9.18;;
29196;SDS011;62796;42.654;23.316;2023-10-13T01:59:10;15.65;;;8.65;;
29196;SDS011;62796;42.654;23.316;2023-10-13T02:01:36;13.45;;;9.48;;
29196;SDS011;62796;42.654;23.316;2023-10-13T02:04:02;17.88;;;9.00;;
29196;SDS011;62796;42.654;23.316;2023-10-13T02:06:33;14.15;;;8.85;;
29196;SDS011;62796;42.654;23.316;2023-10-13T02:09:10;13.60;;;8.82;;
29196;SDS011;62796;42.654;23.316;2023-10-13T02:11:41;18.80;;;9.93;;
29196;SDS011;62796;42.654;23.316;2023-10-13T02:14:10;13.48;;;9.63;;
29196;SDS011;62796;42.654;23.316;2023-10-13T02:16:36;14.65;;;9.27;;
29196;SDS011;62796;42.654;23.316;2023-10-13T02:19:02;15.60;;;9.55;;
29196;SDS011;62796;42.654;23.316;2023-10-13T02:21:33;18.85;;;10.45;;
29196;SDS011;62796;42.654;23.316;2023-10-13T02:24:05;17.90;;;9.90;;
29196;SDS011;62796;42.654;23.316;2023-10-13T02:26:40;14.35;;;9.20;;
29196;SDS011;62796;42.654;23.316;2023-10-13T02:29:06;16.92;;;9.60;;
29196;SDS011;62796;42.654;23.316;2023-10-13T02:31:36;18.05;;;9.52;;
29196;SDS011;62796;42.654;23.316;2023-10-13T02:34:02;14.07;;;9.30;;
29196;SDS011;62796;42.654;23.316;2023-10-13T02:36:33;15.60;;;9.20;;
29196;SDS011;62796;42.654;23.316;2023-10-13T02:39:02;15.77;;;9.68;;
29196;SDS011;62796;42.654;23.316;2023-10-13T02:41:32;15.43;;;9.60;;
29196;SDS011;62796;42.654;23.316;2023-10-13T02:44:02;14.00;;;9.50;;
29196;SDS011;62796;42.654;23.316;2023-10-13T02:46:31;15.75;;;9.25;;
29196;SDS011;62796;42.654;23.316;2023-10-13T02:49:00;14.57;;;9.60;;
29196;SDS011;62796;42.654;23.316;2023-10-13T02:51:27;12.55;;;9.90;;
29196;SDS011;62796;42.654;23.316;2023-10-13T02:54:02;17.10;;;9.40;;
29196;SDS011;62796;42.654;23.316;2023-10-13T02:56:34;14.45;;;9.50;;
29196;SDS011;62796;42.654;23.316;2023-10-13T02:59:00;18.08;;;8.82;;
29196;SDS011;62796;42.654;23.316;2023-10-13T03:01:30;29.60;;;10.23;;
29196;SDS011;62796;42.654;23.316;2023-10-13T03:03:59;18.83;;;9.77;;
29196;SDS011;62796;42.654;23.316;2023-10-13T03:06:26;28.20;;;10.23;;
29196;SDS011;62796;42.654;23.316;2023-10-13T03:08:58;24.83;;;9.70;;
29196;SDS011;62796;42.654;23.316;2023-10-13T03:11:51;27.90;;;10.90;;
29196;SDS011;62796;42.654;23.316;2023-10-13T03:14:23;24.10;;;11.15;;
29196;SDS011;62796;42.654;23.316;2023-10-13T03:16:53;26.25;;;11.48;;
29196;SDS011;62796;42.654;23.316;2023-10-13T03:19:19;23.92;;;10.73;;
29196;SDS011;62796;42.654;23.316;2023-10-13T03:21:45;32.38;;;10.93;;
29196;SDS011;62796;42.654;23.316;2023-10-13T03:24:20;21.20;;;10.43;;
29196;SDS011;62796;42.654;23.316;2023-10-13T03:26:48;20.63;;;10.63;;
29196;SDS011;62796;42.654;23.316;2023-10-13T03:29:17;20.38;;;10.45;;
29196;SDS011;62796;42.654;23.316;2023-10-13T03:31:47;26.27;;;10.40;;
29196;SDS011;62796;42.654;23.316;2023-10-13T03:34:20;22.00;;;10.07;;
29196;SDS011;62796;42.654;23.316;2023-10-13T03:36:45;16.35;;;9.70;;
29196;SDS011;62796;42.654;23.316;2023-10-13T03:39:23;24.20;;;9.80;;
29196;SDS011;62796;42.654;23.316;2023-10-13T03:41:55;23.40;;;10.50;;
29196;SDS011;62796;42.654;23.316;2023-10-13T03:44:22;16.63;;;10.15;;
29196;SDS011;62796;42.654;23.316;2023-10-13T03:46:48;18.05;;;9.73;;
29196;SDS011;62796;42.654;23.316;2023-10-13T03:49:17;18.38;;;10.23;;
29196;SDS011;62796;42.654;23.316;2023-10-13T03:51:46;21.48;;;10.05;;
29196;SDS011;62796;42.654;23.316;2023-10-13T03:54:15;18.30;;;10.27;;
29196;SDS011;62796;42.654;23.316;2023-10-13T03:56:42;16.67;;;9.90;;
29196;SDS011;62796;42.654;23.316;2023-10-13T03:59:10;24.33;;;13.60;;
29196;SDS011;62796;42.654;23.316;2023-10-13T04:01:45;19.23;;;11.10;;
29196;SDS011;62796;42.654;23.316;2023-10-13T04:04:13;17.17;;;10.75;;
29196;SDS011;62796;42.654;23.316;2023-10-13T04:06:43;19.67;;;10.75;;
29196;SDS011;62796;42.654;23.316;2023-10-13T04:09:21;19.50;;;9.75;;
29196;SDS011;62796;42.654;23.316;2023-10-13T04:12:00;19.73;;;10.07;;
29196;SDS011;62796;42.654;23.316;2023-10-13T04:14:28;15.80;;;9.75;;
29196;SDS011;62796;42.654;23.316;2023-10-13T04:17:17;17.50;;;10.00;;
29196;SDS011;62796;42.654;23.316;2023-10-13T04:19:51;21.48;;;10.82;;
29196;SDS011;62796;42.654;23.316;2023-10-13T04:27:57;30.38;;;12.85;;
29196;SDS011;62796;42.654;23.316;2023-10-13T04:30:37;36.88;;;12.20;;
29196;SDS011;62796;42.654;23.316;2023-10-13T04:33:22;26.83;;;12.30;;
29196;SDS011;62796;42.654;23.316;2023-10-13T04:36:15;28.55;;;12.20;;
29196;SDS011;62796;42.654;23.316;2023-10-13T04:38:45;29.00;;;12.05;;
29196;SDS011;62796;42.654;23.316;2023-10-13T04:41:30;31.40;;;11.90;;
29196;SDS011;62796;42.654;23.316;2023-10-13T04:44:06;25.67;;;12.30;;
29196;SDS011;62796;42.654;23.316;2023-10-13T04:46:51;47.28;;;13.18;;
29196;SDS011;62796;42.654;23.316;2023-10-13T04:49:20;37.25;;;13.57;;
29196;SDS011;62796;42.654;23.316;2023-10-13T04:51:56;32.85;;;12.05;;
29196;SDS011;62796;42.654;23.316;2023-10-13T04:54:44;45.47;;;13.13;;
29196;SDS011;62796;42.654;23.316;2023-10-13T04:57:19;35.72;;;13.63;;
29196;SDS011;62796;42.654;23.316;2023-10-13T04:59:49;35.47;;;13.20;;
29196;SDS011;62796;42.654;23.316;2023-10-13T05:02:34;31.13;;;12.68;;
29196;SDS011;62796;42.654;23.316;2023-10-13T05:07:48;32.78;;;13.77;;
29196;SDS011;62796;42.654;23.316;2023-10-13T05:10:33;27.85;;;12.48;;
29196;SDS011;62796;42.654;23.316;2023-10-13T05:13:18;26.00;;;12.23;;
29196;SDS011;62796;42.654;23.316;2023-10-13T05:16:02;26.15;;;12.60;;
29196;SDS011;62796;42.654;23.316;2023-10-13T05:18:46;34.90;;;14.82;;
29196;SDS011;62796;42.654;23.316;2023-10-13T05:21:30;35.65;;;14.15;;
29196;SDS011;62796;42.654;23.316;2023-10-13T05:24:14;38.33;;;16.27;;
29196;SDS011;62796;42.654;23.316;2023-10-13T05:26:58;29.33;;;15.13;;
29196;SDS011;62796;42.654;23.316;2023-10-13T05:32:27;35.60;;;14.97;;
29196;SDS011;62796;42.654;23.316;2023-10-13T05:35:11;36.17;;;14.52;;
29196;SDS011;62796;42.654;23.316;2023-10-13T05:37:56;37.80;;;13.98;;
29196;SDS011;62796;42.654;23.316;2023-10-13T05:43:43;37.38;;;14.55;;
29196;SDS011;62796;42.654;23.316;2023-10-13T05:49:03;33.97;;;14.48;;
29196;SDS011;62796;42.654;23.316;2023-10-13T05:51:42;35.00;;;15.00;;
29196;SDS011;62796;42.654;23.316;2023-10-13T05:54:08;23.45;;;14.18;;
29196;SDS011;62796;42.654;23.316;2023-10-13T05:59:35;27.45;;;13.75;;
29196;SDS011;62796;42.654;23.316;2023-10-13T06:02:21;26.10;;;13.45;;
29196;SDS011;62796;42.654;23.316;2023-10-13T06:05:10;25.38;;;13.35;;
29196;SDS011;62796;42.654;23.316;2023-10-13T06:07:56;28.00;;;13.68;;
29196;SDS011;62796;42.654;23.316;2023-10-13T06:10:40;29.40;;;13.88;;
29196;SDS011;62796;42.654;23.316;2023-10-13T06:13:25;33.70;;;13.70;;
29196;SDS011;62796;42.654;23.316;2023-10-13T06:16:11;31.13;;;14.40;;
29196;SDS011;62796;42.654;23.316;2023-10-13T06:18:56;38.70;;;15.25;;
29196;SDS011;62796;42.654;23.316;2023-10-13T06:24:25;45.20;;;15.10;;
29196;SDS011;62796;42.654;23.316;2023-10-13T06:27:09;49.90;;;15.70;;
29196;SDS011;62796;42.654;23.316;2023-10-13T06:29:53;46.90;;;19.95;;
29196;SDS011;62796;42.654;23.316;2023-10-13T06:32:19;41.38;;;21.23;;
29196;SDS011;62796;42.654;23.316;2023-10-13T06:34:45;43.90;;;22.17;;
29196;SDS011;62796;42.654;23.316;2023-10-13T06:37:14;40.40;;;18.88;;
29196;SDS011;62796;42.654;23.316;2023-10-13T06:39:50;41.17;;;17.38;;
29196;SDS011;62796;42.654;23.316;2023-10-13T06:42:16;41.95;;;16.45;;
29196;SDS011;62796;42.654;23.316;2023-10-13T06:44:44;33.83;;;15.50;;
29196;SDS011;62796;42.654;23.316;2023-10-13T06:47:12;40.55;;;15.95;;
29196;SDS011;62796;42.654;23.316;2023-10-13T06:49:39;33.92;;;15.20;;
29196;SDS011;62796;42.654;23.316;2023-10-13T06:52:05;27.95;;;14.80;;
29196;SDS011;62796;42.654;23.316;2023-10-13T06:54:35;27.85;;;14.55;;
29196;SDS011;62796;42.654;23.316;2023-10-13T06:57:02;31.05;;;14.60;;
29196;SDS011;62796;42.654;23.316;2023-10-13T06:59:31;28.20;;;13.77;;
29196;SDS011;62796;42.654;23.316;2023-10-13T07:02:00;38.28;;;15.38;;
29196;SDS011;62796;42.654;23.316;2023-10-13T07:04:34;37.35;;;14.10;;
29196;SDS011;62796;42.654;23.316;2023-10-13T07:07:04;36.13;;;14.75;;
29196;SDS011;62796;42.654;23.316;2023-10-13T07:09:30;35.25;;;15.73;;
29196;SDS011;62796;42.654;23.316;2023-10-13T07:11:59;31.00;;;15.40;;
29196;SDS011;62796;42.654;23.316;2023-10-13T07:14:26;33.97;;;17.48;;
29196;SDS011;62796;42.654;23.316;2023-10-13T07:16:56;31.25;;;14.07;;
29196;SDS011;62796;42.654;23.316;2023-10-13T07:19:26;22.75;;;13.07;;
29196;SDS011;62796;42.654;23.316;2023-10-13T07:21:55;25.85;;;13.90;;
29196;SDS011;62796;42.654;23.316;2023-10-13T07:24:25;31.45;;;13.85;;
29196;SDS011;62796;42.654;23.316;2023-10-13T07:26:53;23.08;;;12.55;;
29196;SDS011;62796;42.654;23.316;2023-10-13T07:29:27;27.45;;;13.43;;
29196;SDS011;62796;42.654;23.316;2023-10-13T07:31:53;35.22;;;14.55;;
29196;SDS011;62796;42.654;23.316;2023-10-13T07:34:18;38.47;;;15.45;;
29196;SDS011;62796;42.654;23.316;2023-10-13T07:36:51;32.22;;;14.38;;
29196;SDS011;62796;42.654;23.316;2023-10-13T07:39:18;33.15;;;14.80;;
29196;SDS011;62796;42.654;23.316;2023-10-13T07:41:49;36.75;;;15.63;;
29196;SDS011;62796;42.654;23.316;2023-10-13T07:44:31;37.78;;;16.25;;
29196;SDS011;62796;42.654;23.316;2023-10-13T07:46:58;26.05;;;12.90;;
29196;SDS011;62796;42.654;23.316;2023-10-13T07:49:31;22.90;;;13.00;;
29196;SDS011;62796;42.654;23.316;2023-10-13T07:52:01;35.42;;;13.98;;
29196;SDS011;62796;42.654;23.316;2023-10-13T07:54:46;36.47;;;14.18;;
29196;SDS011;62796;42.654;23.316;2023-10-13T07:57:14;37.47;;;15.40;;
29196;SDS011;62796;42.654;23.316;2023-10-13T07:59:40;26.90;;;14.88;;
29196;SDS011;62796;42.654;23.316;2023-10-13T08:02:13;26.57;;;13.33;;
29196;SDS011;62796;42.654;23.316;2023-10-13T08:04:58;30.10;;;13.20;;
29196;SDS011;62796;42.654;23.316;2023-10-13T08:07:23;32.60;;;13.48;;
29196;SDS011;62796;42.654;23.316;2023-10-13T08:09:53;31.23;;;13.10;;
29196;SDS011;62796;42.654;23.316;2023-10-13T08:12:18;33.33;;;12.80;;
29196;SDS011;62796;42.654;23.316;2023-10-13T08:14:46;40.17;;;13.50;;
29196;SDS011;62796;42.654;23.316;2023-10-13T08:17:13;27.08;;;12.90;;
29196;SDS011;62796;42.654;23.316;2023-10-13T08:19:39;31.02;;;13.30;;
29196;SDS011;62796;42.654;23.316;2023-10-13T08:22:05;31.52;;;12.52;;
29196;SDS011;62796;42.654;23.316;2023-10-13T08:24:44;24.92;;;13.07;;
29196;SDS011;62796;42.654;23.316;2023-10-13T08:27:10;33.72;;;14.40;;
29196;SDS011;62796;42.654;23.316;2023-10-13T08:29:54;29.67;;;15.00;;
29196;SDS011;62796;42.654;23.316;2023-10-13T08:32:27;28.90;;;13.77;;
29196;SDS011;62796;42.654;23.316;2023-10-13T08:34:57;29.20;;;15.07;;
29196;SDS011;62796;42.654;23.316;2023-10-13T08:37:24;35.72;;;15.40;;
29196;SDS011;62796;42.654;23.316;2023-10-13T08:39:54;33.72;;;14.60;;
29196;SDS011;62796;42.654;23.316;2023-10-13T08:42:43;21.85;;;13.18;;
29196;SDS011;62796;42.654;23.316;2023-10-13T08:45:10;30.08;;;15.30;;
29196;SDS011;62796;42.654;23.316;2023-10-13T08:47:48;23.50;;;12.75;;
29196;SDS011;62796;42.654;23.316;2023-10-13T08:50:38;28.17;;;14.93;;
29196;SDS011;62796;42.654;23.316;2023-10-13T08:53:14;28.02;;;15.65;;
29196;SDS011;62796;42.654;23.316;2023-10-13T08:55:56;30.55;;;15.15;;
29196;SDS011;62796;42.654;23.316;2023-10-13T08:58:30;27.30;;;16.15;;
29196;SDS011;62796;42.654;23.316;2023-10-13T09:01:15;30.15;;;15.95;;
29196;SDS011;62796;42.654;23.316;2023-10-13T09:03:59;37.97;;;17.50;;
29196;SDS011;62796;42.654;23.316;2023-10-13T09:06:50;31.65;;;16.10;;
29196;SDS011;62796;42.654;23.316;2023-10-13T09:12:29;32.80;;;18.23;;
29196;SDS011;62796;42.654;23.316;2023-10-13T09:14:58;36.05;;;17.35;;
29196;SDS011;62796;42.654;23.316;2023-10-13T09:20:28;27.35;;;16.05;;
29196;SDS011;62796;42.654;23.316;2023-10-13T09:23:07;25.98;;;15.57;;
29196;SDS011;62796;42.654;23.316;2023-10-13T09:25:49;32.13;;;14.80;;
29196;SDS011;62796;42.654;23.316;2023-10-13T09:28:34;29.42;;;15.52;;
29196;SDS011;62796;42.654;23.316;2023-10-13T09:31:02;28.73;;;14.75;;
29196;SDS011;62796;42.654;23.316;2023-10-13T09:33:28;37.10;;;14.93;;
29196;SDS011;62796;42.654;23.316;2023-10-13T09:36:15;27.52;;;13.93;;
29196;SDS011;62796;42.654;23.316;2023-10-13T09:38:42;36.88;;;14.00;;
29196;SDS011;62796;42.654;23.316;2023-10-13T09:41:14;29.27;;;13.40;;
29196;SDS011;62796;42.654;23.316;2023-10-13T09:43:51;26.33;;;12.15;;
29196;SDS011;62796;42.654;23.316;2023-10-13T09:46:20;27.67;;;12.90;;
29196;SDS011;62796;42.654;23.316;2023-10-13T09:48:48;35.90;;;13.68;;
29196;SDS011;62796;42.654;23.316;2023-10-13T09:51:29;21.75;;;11.25;;
29196;SDS011;62796;42.654;23.316;2023-10-13T09:54:05;24.02;;;10.55;;
29196;SDS011;62796;42.654;23.316;2023-10-13T09:56:58;19.95;;;10.13;;
29196;SDS011;62796;42.654;23.316;2023-10-13T10:02:54;28.48;;;10.85;;
29196;SDS011;62796;42.654;23.316;2023-10-13T10:05:27;22.48;;;9.55;;
29196;SDS011;62796;42.654;23.316;2023-10-13T10:07:56;18.83;;;9.63;;
29196;SDS011;62796;42.654;23.316;2023-10-13T10:10:25;19.05;;;8.55;;
29196;SDS011;62796;42.654;23.316;2023-10-13T10:13:07;14.82;;;8.80;;
29196;SDS011;62796;42.654;23.316;2023-10-13T10:15:48;19.92;;;9.40;;
29196;SDS011;62796;42.654;23.316;2023-10-13T10:18:23;19.15;;;9.18;;
29196;SDS011;62796;42.654;23.316;2023-10-13T10:20:50;25.35;;;9.15;;
29196;SDS011;62796;42.654;23.316;2023-10-13T10:23:23;26.45;;;9.35;;
29196;SDS011;62796;42.654;23.316;2023-10-13T10:25:50;15.43;;;7.55;;
29196;SDS011;62796;42.654;23.316;2023-10-13T10:28:17;17.80;;;7.95;;
29196;SDS011;62796;42.654;23.316;2023-10-13T10:30:44;20.55;;;8.25;;
29196;SDS011;62796;42.654;23.316;2023-10-13T10:33:10;25.13;;;8.88;;
29196;SDS011;62796;42.654;23.316;2023-10-13T10:35:39;29.85;;;8.38;;
29196;SDS011;62796;42.654;23.316;2023-10-13T10:38:14;19.65;;;7.53;;
29196;SDS011;62796;42.654;23.316;2023-10-13T10:43:36;16.85;;;6.30;;
29196;SDS011;62796;42.654;23.316;2023-10-13T10:46:18;19.20;;;6.28;;
29196;SDS011;62796;42.654;23.316;2023-10-13T10:48:51;16.37;;;5.33;;
29196;SDS011;62796;42.654;23.316;2023-10-13T10:51:26;14.90;;;5.70;;
29196;SDS011;62796;42.654;23.316;2023-10-13T10:53:56;13.57;;;5.13;;
29196;SDS011;62796;42.654;23.316;2023-10-13T10:56:23;10.75;;;5.35;;
29196;SDS011;62796;42.654;23.316;2023-10-13T10:58:57;11.30;;;4.93;;
29196;SDS011;62796;42.654;23.316;2023-10-13T11:01:25;7.75;;;4.78;;
29196;SDS011;62796;42.654;23.316;2023-10-13T11:03:59;8.98;;;4.10;;
29196;SDS011;62796;42.654;23.316;2023-10-13T11:06:32;9.45;;;4.65;;
29196;SDS011;62796;42.654;23.316;2023-10-13T11:12:08;16.80;;;5.28;;
29196;SDS011;62796;42.654;23.316;2023-10-13T11:14:41;12.68;;;5.10;;
29196;SDS011;62796;42.654;23.316;2023-10-13T11:17:07;18.27;;;5.65;;
29196;SDS011;62796;42.654;23.316;2023-10-13T11:19:45;13.23;;;5.40;;
29196;SDS011;62796;42.654;23.316;2023-10-13T11:22:14;8.40;;;5.05;;
29196;SDS011;62796;42.654;23.316;2023-10-13T11:25:26;12.82;;;5.13;;
29196;SDS011;62796;42.654;23.316;2023-10-13T11:27:57;11.77;;;5.20;;
29196;SDS011;62796;42.654;23.316;2023-10-13T11:30:31;7.53;;;4.22;;
29196;SDS011;62796;42.654;23.316;2023-10-13T11:33:09;14.48;;;4.43;;
29196;SDS011;62796;42.654;23.316;2023-10-13T11:35:39;10.38;;;3.90;;
29196;SDS011;62796;42.654;23.316;2023-10-13T11:38:31;11.93;;;4.93;;
29196;SDS011;62796;42.654;23.316;2023-10-13T11:41:14;13.55;;;3.88;;
29196;SDS011;62796;42.654;23.316;2023-10-13T11:43:49;9.57;;;4.03;;
29196;SDS011;62796;42.654;23.316;2023-10-13T11:46:16;12.63;;;4.03;;
29196;SDS011;62796;42.654;23.316;2023-10-13T11:49:01;8.88;;;4.07;;
29196;SDS011;62796;42.654;23.316;2023-10-13T11:51:51;11.20;;;4.20;;
29196;SDS011;62796;42.654;23.316;2023-10-13T11:54:17;10.48;;;3.58;;
29196;SDS011;62796;42.654;23.316;2023-10-13T11:56:44;18.40;;;4.00;;
29196;SDS011;62796;42.654;23.316;2023-10-13T11:59:10;11.25;;;4.10;;
29196;SDS011;62796;42.654;23.316;2023-10-13T12:01:49;16.10;;;3.78;;
29196;SDS011;62796;42.654;23.316;2023-10-13T12:04:34;11.35;;;4.18;;
29196;SDS011;62796;42.654;23.316;2023-10-13T12:07:07;8.88;;;3.53;;
29196;SDS011;62796;42.654;23.316;2023-10-13T12:09:38;11.53;;;3.73;;
29196;SDS011;62796;42.654;23.316;2023-10-13T12:12:17;9.57;;;3.70;;
29196;SDS011;62796;42.654;23.316;2023-10-13T12:14:42;8.75;;;2.83;;
29196;SDS011;62796;42.654;23.316;2023-10-13T12:17:29;9.38;;;2.88;;
29196;SDS011;62796;42.654;23.316;2023-10-13T12:20:02;10.88;;;2.97;;
29196;SDS011;62796;42.654;23.316;2023-10-13T12:25:16;8.05;;;2.80;;
29196;SDS011;62796;42.654;23.316;2023-10-13T12:27:59;7.32;;;3.17;;
29196;SDS011;62796;42.654;23.316;2023-10-13T12:30:46;6.15;;;2.83;;
29196;SDS011;62796;42.654;23.316;2023-10-13T12:33:17;9.90;;;3.05;;
29196;SDS011;62796;42.654;23.316;2023-10-13T12:35:56;8.95;;;3.10;;
29196;SDS011;62796;42.654;23.316;2023-10-13T12:38:55;10.75;;;2.85;;
29196;SDS011;62796;42.654;23.316;2023-10-13T12:41:41;9.13;;;3.25;;
29196;SDS011;62796;42.654;23.316;2023-10-13T12:44:25;10.27;;;3.00;;
29196;SDS011;62796;42.654;23.316;2023-10-13T12:47:09;12.32;;;3.10;;
29196;SDS011;62796;42.654;23.316;2023-10-13T12:49:53;7.45;;;3.30;;
29196;SDS011;62796;42.654;23.316;2023-10-13T12:52:23;12.20;;;3.78;;
29196;SDS011;62796;42.654;23.316;2023-10-13T12:54:51;8.38;;;3.88;;
29196;SDS011;62796;42.654;23.316;2023-10-13T12:59:49;7.93;;;3.10;;
29196;SDS011;62796;42.654;23.316;2023-10-13T13:02:18;7.55;;;3.08;;
29196;SDS011;62796;42.654;23.316;2023-10-13T13:04:49;8.73;;;3.33;;
29196;SDS011;62796;42.654;23.316;2023-10-13T13:07:34;10.30;;;3.38;;
29196;SDS011;62796;42.654;23.316;2023-10-13T13:10:09;12.07;;;3.42;;
29196;SDS011;62796;42.654;23.316;2023-10-13T13:12:38;8.13;;;3.13;;
29196;SDS011;62796;42.654;23.316;2023-10-13T13:15:04;12.52;;;3.33;;
29196;SDS011;62796;42.654;23.316;2023-10-13T13:17:34;8.85;;;3.50;;
29196;SDS011;62796;42.654;23.316;2023-10-13T13:20:04;7.50;;;3.45;;
29196;SDS011;62796;42.654;23.316;2023-10-13T13:22:39;15.02;;;4.53;;
29196;SDS011;62796;42.654;23.316;2023-10-13T13:25:04;9.48;;;3.78;;
29196;SDS011;62796;42.654;23.316;2023-10-13T13:27:36;7.30;;;3.20;;
29196;SDS011;62796;42.654;23.316;2023-10-13T13:30:02;7.47;;;3.28;;
29196;SDS011;62796;42.654;23.316;2023-10-13T13:32:37;8.73;;;3.40;;
29196;SDS011;62796;42.654;23.316;2023-10-13T13:35:03;6.47;;;3.30;;
29196;SDS011;62796;42.654;23.316;2023-10-13T13:37:30;11.70;;;3.85;;
29196;SDS011;62796;42.654;23.316;2023-10-13T13:39:56;8.95;;;3.35;;
29196;SDS011;62796;42.654;23.316;2023-10-13T13:42:21;6.80;;;3.03;;
29196;SDS011;62796;42.654;23.316;2023-10-13T13:44:47;8.30;;;3.20;;
29196;SDS011;62796;42.654;23.316;2023-10-13T13:47:13;7.85;;;3.58;;
29196;SDS011;62796;42.654;23.316;2023-10-13T13:49:39;11.25;;;3.38;;
29196;SDS011;62796;42.654;23.316;2023-10-13T13:52:08;17.15;;;3.70;;
29196;SDS011;62796;42.654;23.316;2023-10-13T13:54:34;9.43;;;3.33;;
29196;SDS011;62796;42.654;23.316;2023-10-13T13:57:00;9.05;;;3.42;;
29196;SDS011;62796;42.654;23.316;2023-10-13T13:59:25;8.95;;;3.40;;
29196;SDS011;62796;42.654;23.316;2023-10-13T14:01:51;16.05;;;3.90;;
29196;SDS011;62796;42.654;23.316;2023-10-13T14:04:18;6.10;;;3.08;;
29196;SDS011;62796;42.654;23.316;2023-10-13T14:06:44;7.15;;;3.65;;
29196;SDS011;62796;42.654;23.316;2023-10-13T14:09:10;10.98;;;3.72;;
29196;SDS011;62796;42.654;23.316;2023-10-13T14:12:00;8.50;;;3.80;;
29196;SDS011;62796;42.654;23.316;2023-10-13T14:14:44;10.13;;;3.40;;
29196;SDS011;62796;42.654;23.316;2023-10-13T14:17:20;8.90;;;3.35;;
29196;SDS011;62796;42.654;23.316;2023-10-13T14:19:53;11.57;;;3.67;;
29196;SDS011;62796;42.654;23.316;2023-10-13T14:22:20;7.68;;;3.50;;
29196;SDS011;62796;42.654;23.316;2023-10-13T14:24:50;6.32;;;3.08;;
29196;SDS011;62796;42.654;23.316;2023-10-13T14:27:19;7.05;;;3.22;;
29196;SDS011;62796;42.654;23.316;2023-10-13T14:29:48;7.88;;;3.78;;
29196;SDS011;62796;42.654;23.316;2023-10-13T14:32:17;12.82;;;3.70;;
29196;SDS011;62796;42.654;23.316;2023-10-13T14:34:44;9.93;;;4.18;;
29196;SDS011;62796;42.654;23.316;2023-10-13T14:37:12;9.02;;;3.90;;
29196;SDS011;62796;42.654;23.316;2023-10-13T14:39:41;10.05;;;3.97;;
29196;SDS011;62796;42.654;23.316;2023-10-13T14:42:07;8.23;;;4.35;;
29196;SDS011;62796;42.654;23.316;2023-10-13T14:44:33;14.65;;;4.35;;
29196;SDS011;62796;42.654;23.316;2023-10-13T14:46:59;19.15;;;5.28;;
29196;SDS011;62796;42.654;23.316;2023-10-13T14:49:25;22.58;;;6.20;;
29196;SDS011;62796;42.654;23.316;2023-10-13T14:51:51;19.95;;;7.28;;
29196;SDS011;62796;42.654;23.316;2023-10-13T14:54:17;22.58;;;6.47;;
29196;SDS011;62796;42.654;23.316;2023-10-13T14:56:50;19.37;;;6.17;;
29196;SDS011;62796;42.654;23.316;2023-10-13T14:59:17;24.13;;;6.18;;
29196;SDS011;62796;42.654;23.316;2023-10-13T15:01:47;30.30;;;6.30;;
29196;SDS011;62796;42.654;23.316;2023-10-13T15:04:14;20.30;;;5.63;;
29196;SDS011;62796;42.654;23.316;2023-10-13T15:06:39;20.80;;;5.03;;
29196;SDS011;62796;42.654;23.316;2023-10-13T15:09:05;23.40;;;5.60;;
29196;SDS011;62796;42.654;23.316;2023-10-13T15:11:35;26.15;;;5.93;;
29196;SDS011;62796;42.654;23.316;2023-10-13T15:14:01;21.05;;;5.32;;
29196;SDS011;62796;42.654;23.316;2023-10-13T15:16:27;20.30;;;6.63;;
29196;SDS011;62796;42.654;23.316;2023-10-13T15:18:53;25.45;;;6.45;;
29196;SDS011;62796;42.654;23.316;2023-10-13T15:21:28;36.63;;;7.13;;
29196;SDS011;62796;42.654;23.316;2023-10-13T15:24:05;24.85;;;8.00;;
29196;SDS011;62796;42.654;23.316;2023-10-13T15:26:46;28.52;;;9.02;;
29196;SDS011;62796;42.654;23.316;2023-10-13T15:29:17;29.63;;;8.60;;
29196;SDS011;62796;42.654;23.316;2023-10-13T15:31:50;30.17;;;9.13;;
29196;SDS011;62796;42.654;23.316;2023-10-13T15:34:24;33.58;;;8.90;;
29196;SDS011;62796;42.654;23.316;2023-10-13T15:36:53;26.52;;;9.48;;
29196;SDS011;62796;42.654;23.316;2023-10-13T15:39:23;35.25;;;9.90;;